Time;durP1;ratioP1;P1;durP2;ratioP2;P2;SDS_P1;SDS_P2;PMS_P1;PMS_P2;Temp;Humidity;BMP_temperature;BMP_pressure;BME280_temperature;BME280_humidity;BME280_pressure;Samples;Min_cycle;Max_cycle;Signal;HPM_P1;HPM_P2
2024/01/23 00:02:02;;;;;;;20.20;2.88;;;6.40;99.90;;;;;;5072613;28;20500;-51
2024/01/23 00:04:28;;;;;;;22.48;3.88;;;6.30;99.90;;;;;;5072716;28;20051;-51
2024/01/23 00:06:54;;;;;;;20.20;4.32;;;6.00;99.90;;;;;;5072672;28;20036;-47
2024/01/23 00:09:19;;;;;;;19.27;2.88;;;6.00;99.90;;;;;;5072459;28;20463;-48
2024/01/23 00:11:45;;;;;;;16.10;2.95;;;6.20;99.90;;;;;;5072513;28;20040;-50
2024/01/23 00:14:11;;;;;;;19.27;3.72;;;5.90;99.90;;;;;;5072137;28;20115;-48
2024/01/23 00:16:36;;;;;;;20.42;2.95;;;6.10;99.90;;;;;;5072565;28;20037;-48
2024/01/23 00:19:02;;;;;;;18.38;3.00;;;6.20;99.90;;;;;;5072310;28;20043;-48
2024/01/23 00:21:28;;;;;;;22.77;3.88;;;5.80;99.90;;;;;;5072423;28;20159;-47
2024/01/23 00:23:54;;;;;;;20.73;3.25;;;6.20;99.90;;;;;;5072421;28;20071;-48
2024/01/23 00:26:19;;;;;;;23.23;3.28;;;6.10;99.90;;;;;;5054330;28;20056;-50
2024/01/23 00:28:45;;;;;;;17.00;3.13;;;5.90;99.90;;;;;;5072232;28;20040;-49
2024/01/23 00:31:11;;;;;;;26.02;3.60;;;6.00;99.90;;;;;;5072433;28;20041;-48
2024/01/23 00:33:37;;;;;;;21.70;3.17;;;5.70;99.90;;;;;;5072419;28;20038;-48
2024/01/23 00:36:03;;;;;;;23.23;3.55;;;6.00;99.90;;;;;;5066329;28;20036;-49
2024/01/23 00:38:29;;;;;;;20.42;3.28;;;5.90;99.90;;;;;;5051654;28;20053;-61
2024/01/23 00:40:55;;;;;;;24.83;3.30;;;6.20;99.90;;;;;;5052227;28;20045;-61
2024/01/23 00:43:20;;;;;;;26.40;3.65;;;6.10;99.90;;;;;;5052342;28;20110;-60
2024/01/23 00:45:46;;;;;;;23.02;4.07;;;5.70;99.90;;;;;;5052048;28;20033;-60
2024/01/23 00:48:12;;;;;;;19.70;4.03;;;6.10;99.90;;;;;;5052263;28;20059;-60
2024/01/23 00:50:37;;;;;;;19.85;3.17;;;5.90;99.90;;;;;;5062156;28;20063;-60
2024/01/23 00:53:03;;;;;;;21.20;3.13;;;6.10;99.90;;;;;;5057191;28;20047;-60
2024/01/23 00:55:29;;;;;;;24.67;3.40;;;6.20;99.90;;;;;;5051990;28;20119;-60
2024/01/23 00:57:54;;;;;;;20.63;3.53;;;6.00;99.90;;;;;;5051942;28;20041;-61
2024/01/23 01:00:20;;;;;;;16.88;4.10;;;6.00;99.90;;;;;;5051709;28;20508;-59
2024/01/23 01:02:46;;;;;;;20.73;3.20;;;5.90;99.90;;;;;;5052075;28;20073;-60
2024/01/23 01:05:12;;;;;;;20.92;3.60;;;5.90;99.90;;;;;;5051849;28;20103;-60
2024/01/23 01:07:37;;;;;;;16.02;3.25;;;5.90;99.90;;;;;;5051743;28;20501;-60
2024/01/23 01:10:04;;;;;;;17.05;2.92;;;6.10;99.90;;;;;;5050799;28;20044;-60
2024/01/23 01:12:30;;;;;;;23.45;5.65;;;6.10;99.90;;;;;;5051985;28;20072;-60
2024/01/23 01:14:56;;;;;;;20.13;4.20;;;6.10;99.90;;;;;;5051990;28;20033;-60
2024/01/23 01:17:21;;;;;;;19.75;3.53;;;6.10;99.90;;;;;;5051760;28;20033;-60
2024/01/23 01:19:48;;;;;;;16.65;4.07;;;5.80;99.90;;;;;;5056938;28;20124;-60
2024/01/23 01:22:14;;;;;;;19.27;3.38;;;5.70;99.90;;;;;;5052996;28;20107;-60
2024/01/23 01:24:39;;;;;;;19.50;5.15;;;5.70;99.90;;;;;;5055087;28;20040;-59
2024/01/23 01:27:06;;;;;;;21.08;3.55;;;5.90;99.90;;;;;;5055892;28;20040;-60
2024/01/23 01:29:31;;;;;;;23.58;3.65;;;5.60;99.90;;;;;;5055479;28;20048;-60
2024/01/23 01:31:57;;;;;;;18.70;3.20;;;5.50;99.90;;;;;;5055570;28;20460;-60
2024/01/23 01:34:23;;;;;;;25.27;5.60;;;5.90;99.90;;;;;;5055429;28;20037;-60
2024/01/23 01:36:48;;;;;;;25.25;5.18;;;5.40;99.90;;;;;;5055570;28;20087;-60
2024/01/23 01:39:14;;;;;;;17.63;3.70;;;5.60;99.90;;;;;;5055495;28;20132;-60
2024/01/23 01:41:40;;;;;;;23.85;3.58;;;5.90;99.90;;;;;;5055684;28;20069;-60
2024/01/23 01:44:07;;;;;;;23.42;4.47;;;5.70;99.90;;;;;;5055254;28;20091;-60
2024/01/23 01:46:33;;;;;;;21.65;3.50;;;5.80;99.90;;;;;;5055218;28;20048;-60
2024/01/23 01:48:59;;;;;;;21.85;3.30;;;5.70;99.90;;;;;;5054979;28;20059;-60
2024/01/23 01:51:28;;;;;;;19.00;3.50;;;5.10;99.90;;;;;;5055084;28;20565;-60
2024/01/23 01:53:55;;;;;;;36.42;7.03;;;5.70;99.90;;;;;;5055096;28;20082;-60
2024/01/23 01:56:23;;;;;;;25.90;4.63;;;5.60;99.90;;;;;;5055068;28;20069;-60
2024/01/23 01:58:49;;;;;;;25.02;3.88;;;5.10;99.90;;;;;;5054996;28;20400;-61
2024/01/23 02:01:17;;;;;;;24.25;5.72;;;5.20;99.90;;;;;;5055267;28;20174;-60
2024/01/23 02:03:42;;;;;;;27.73;3.97;;;5.80;99.90;;;;;;5055176;28;20044;-60
2024/01/23 02:06:09;;;;;;;21.88;3.67;;;5.70;99.90;;;;;;5055008;28;20392;-60
2024/01/23 02:08:37;;;;;;;23.88;3.25;;;5.80;99.90;;;;;;5054853;28;20041;-52
2024/01/23 02:11:03;;;;;;;19.98;3.92;;;5.20;99.90;;;;;;5054847;28;20047;-50
2024/01/23 02:13:29;;;;;;;26.63;3.78;;;5.60;99.90;;;;;;5054725;28;20045;-50
2024/01/23 02:15:55;;;;;;;25.80;4.07;;;5.10;99.90;;;;;;5054939;28;20033;-50
2024/01/23 02:18:20;;;;;;;21.60;3.63;;;5.60;99.90;;;;;;5053744;28;20504;-50
2024/01/23 02:20:46;;;;;;;22.15;4.10;;;5.80;99.90;;;;;;5054942;28;20049;-49
2024/01/23 02:23:15;;;;;;;25.15;3.58;;;5.20;99.90;;;;;;5054646;28;20445;-51
2024/01/23 02:25:42;;;;;;;19.20;3.50;;;5.70;99.90;;;;;;5054420;28;20041;-51
2024/01/23 02:28:09;;;;;;;22.00;4.10;;;5.30;99.90;;;;;;5053082;28;20049;-50
2024/01/23 02:30:35;;;;;;;24.48;4.65;;;5.30;99.90;;;;;;5053265;28;20048;-49
2024/01/23 02:33:03;;;;;;;28.08;4.57;;;5.50;99.90;;;;;;5054382;28;20041;-51
2024/01/23 02:35:30;;;;;;;19.23;3.72;;;5.30;99.90;;;;;;5054260;28;20041;-52
2024/01/23 02:37:56;;;;;;;25.27;3.45;;;5.40;99.90;;;;;;5053593;28;20550;-50
2024/01/23 02:40:22;;;;;;;25.95;3.92;;;5.40;99.90;;;;;;5054391;28;20073;-48
2024/01/23 02:42:48;;;;;;;19.67;4.10;;;5.70;99.90;;;;;;5054516;28;20492;-47
2024/01/23 02:45:14;;;;;;;26.30;4.43;;;5.50;99.90;;;;;;5054318;28;20040;-48
2024/01/23 02:47:39;;;;;;;22.83;4.93;;;5.60;99.90;;;;;;5052655;28;20398;-47
2024/01/23 02:50:06;;;;;;;31.08;5.45;;;6.10;99.90;;;;;;5054355;28;20136;-51
2024/01/23 02:52:31;;;;;;;22.20;3.25;;;6.10;99.90;;;;;;5053009;28;20055;-47
2024/01/23 02:55:00;;;;;;;21.35;3.47;;;6.00;99.90;;;;;;5053946;28;20120;-48
2024/01/23 02:57:27;;;;;;;29.58;4.50;;;5.70;99.90;;;;;;5054208;28;20125;-48
2024/01/23 02:59:53;;;;;;;20.30;4.75;;;6.00;99.90;;;;;;5054040;28;20048;-47
2024/01/23 03:02:23;;;;;;;24.50;4.30;;;6.00;99.90;;;;;;5054154;28;20041;-51
2024/01/23 03:04:49;;;;;;;21.70;3.78;;;5.80;99.90;;;;;;5053741;28;20041;-48
2024/01/23 03:07:15;;;;;;;23.65;3.90;;;6.30;99.90;;;;;;5054032;28;20041;-51
2024/01/23 03:09:42;;;;;;;28.25;4.13;;;6.10;99.90;;;;;;5053720;28;20041;-48
2024/01/23 03:12:15;;;;;;;19.77;4.18;;;5.90;99.90;;;;;;5053893;28;20367;-60
2024/01/23 03:14:42;;;;;;;28.65;3.72;;;5.80;99.90;;;;;;5068517;28;20033;-60
2024/01/23 03:17:08;;;;;;;24.70;4.30;;;6.30;99.90;;;;;;5073530;28;20048;-60
2024/01/23 03:19:33;;;;;;;18.83;3.72;;;6.30;99.90;;;;;;5073518;28;20052;-60
2024/01/23 03:21:59;;;;;;;29.30;4.45;;;6.00;99.90;;;;;;5073379;28;20048;-60
2024/01/23 03:24:25;;;;;;;23.83;4.68;;;6.20;99.90;;;;;;5073605;28;20047;-60
2024/01/23 03:26:50;;;;;;;26.92;4.55;;;6.40;99.90;;;;;;5073537;28;20137;-60
2024/01/23 03:29:16;;;;;;;24.45;4.20;;;6.20;99.90;;;;;;5073241;28;20091;-60
2024/01/23 03:31:42;;;;;;;23.88;3.30;;;6.20;99.90;;;;;;5073218;28;20040;-59
2024/01/23 03:34:07;;;;;;;20.10;5.00;;;6.50;99.90;;;;;;5073316;28;20038;-60
2024/01/23 03:36:33;;;;;;;26.33;4.15;;;6.10;99.90;;;;;;5073375;28;20389;-60
2024/01/23 03:38:58;;;;;;;21.02;2.70;;;6.20;99.90;;;;;;5073083;28;20068;-60
2024/01/23 03:41:24;;;;;;;19.38;3.88;;;6.10;99.90;;;;;;5072898;28;20040;-60
2024/01/23 03:43:50;;;;;;;18.73;3.63;;;6.40;99.90;;;;;;5071879;28;20056;-60
2024/01/23 03:46:15;;;;;;;19.13;3.03;;;6.30;99.90;;;;;;5073077;28;20139;-60
2024/01/23 03:48:41;;;;;;;23.17;3.35;;;6.60;99.90;;;;;;5070571;28;20488;-60
2024/01/23 03:51:07;;;;;;;18.67;3.75;;;6.50;99.90;;;;;;5072905;28;20123;-60
2024/01/23 03:53:32;;;;;;;20.25;4.22;;;6.40;99.90;;;;;;5073086;28;20032;-60
2024/01/23 03:55:58;;;;;;;32.17;4.88;;;6.60;99.90;;;;;;5072849;28;20032;-60
2024/01/23 03:58:24;;;;;;;16.20;3.30;;;6.80;99.90;;;;;;5073022;28;20040;-60
2024/01/23 04:00:50;;;;;;;32.05;4.78;;;6.40;99.90;;;;;;5072683;28;20431;-60
2024/01/23 04:03:15;;;;;;;20.10;4.18;;;6.60;99.90;;;;;;5072754;28;20480;-60
2024/01/23 04:05:41;;;;;;;24.40;3.80;;;6.40;99.90;;;;;;5072613;28;20666;-60
2024/01/23 04:08:08;;;;;;;21.63;3.60;;;6.60;99.90;;;;;;5072684;28;20610;-60
2024/01/23 04:10:33;;;;;;;25.48;3.95;;;6.30;99.90;;;;;;5071538;28;20048;-61
2024/01/23 04:12:59;;;;;;;18.83;2.88;;;6.30;99.90;;;;;;5072594;28;20473;-60
2024/01/23 04:15:26;;;;;;;26.83;4.03;;;6.40;99.90;;;;;;5072359;28;20097;-60
2024/01/23 04:17:55;;;;;;;24.23;3.67;;;6.90;99.90;;;;;;5072700;28;20045;-60
2024/01/23 04:20:20;;;;;;;25.30;4.03;;;6.80;99.90;;;;;;5072118;28;20094;-61
2024/01/23 04:22:46;;;;;;;23.17;3.58;;;6.70;99.90;;;;;;5072531;28;20037;-60
2024/01/23 04:25:14;;;;;;;29.08;4.47;;;6.60;99.90;;;;;;5072299;28;20562;-60
2024/01/23 04:27:40;;;;;;;20.60;3.95;;;6.50;99.90;;;;;;5072295;28;20101;-60
2024/01/23 04:30:06;;;;;;;20.73;4.03;;;6.40;99.90;;;;;;5072193;28;20036;-60
2024/01/23 04:32:32;;;;;;;22.90;3.88;;;6.80;99.90;;;;;;5072196;28;20047;-60
2024/01/23 04:34:58;;;;;;;31.83;4.32;;;6.80;99.90;;;;;;5072081;28;20112;-60
2024/01/23 04:37:23;;;;;;;29.85;5.45;;;6.40;99.90;;;;;;5072318;28;20036;-60
2024/01/23 04:39:49;;;;;;;33.00;4.65;;;6.40;99.90;;;;;;5069246;28;20111;-60
2024/01/23 04:42:15;;;;;;;20.70;3.75;;;6.80;99.90;;;;;;5072206;28;20051;-60
2024/01/23 04:44:41;;;;;;;33.22;6.65;;;6.80;99.90;;;;;;5072083;28;20039;-60
2024/01/23 04:47:07;;;;;;;22.10;3.45;;;6.80;99.90;;;;;;5071799;28;20097;-59
2024/01/23 04:49:33;;;;;;;24.70;4.30;;;6.90;99.90;;;;;;5071946;28;20489;-60
2024/01/23 04:51:58;;;;;;;23.58;4.30;;;6.60;99.90;;;;;;5072155;28;20044;-60
2024/01/23 04:54:24;;;;;;;22.17;4.57;;;6.60;99.90;;;;;;5072174;28;20569;-60
2024/01/23 04:56:50;;;;;;;28.05;5.30;;;6.40;99.90;;;;;;5072153;28;20405;-61
2024/01/23 04:59:15;;;;;;;25.52;3.85;;;6.90;99.90;;;;;;5070411;28;20377;-60
2024/01/23 05:01:41;;;;;;;22.50;4.55;;;6.50;99.90;;;;;;5072078;28;20123;-59
2024/01/23 05:04:07;;;;;;;27.08;3.85;;;6.90;99.90;;;;;;5072012;28;20120;-60
2024/01/23 05:06:32;;;;;;;28.77;4.18;;;6.50;99.90;;;;;;5071579;28;20047;-60
2024/01/23 05:08:58;;;;;;;35.42;4.38;;;6.40;99.90;;;;;;5071700;28;20048;-61
2024/01/23 05:11:24;;;;;;;22.40;5.55;;;6.50;99.90;;;;;;5071945;28;20033;-60
2024/01/23 05:13:49;;;;;;;22.60;4.65;;;6.80;99.90;;;;;;5071922;28;20492;-59
2024/01/23 05:16:15;;;;;;;32.35;4.13;;;6.30;99.90;;;;;;5071781;28;20495;-60
2024/01/23 05:18:41;;;;;;;20.58;3.08;;;6.70;99.90;;;;;;5071798;28;20101;-59
2024/01/23 05:21:08;;;;;;;23.33;4.30;;;6.60;99.90;;;;;;5063491;28;20040;-47
2024/01/23 05:23:33;;;;;;;31.75;4.32;;;6.00;99.90;;;;;;5051667;28;20504;-47
2024/01/23 05:25:59;;;;;;;23.10;4.25;;;6.10;99.90;;;;;;5050252;28;20037;-48
2024/01/23 05:28:25;;;;;;;27.40;5.35;;;6.50;99.90;;;;;;5051535;28;20044;-51
2024/01/23 05:30:50;;;;;;;28.75;4.43;;;5.90;99.90;;;;;;5051764;28;20056;-47
2024/01/23 05:33:16;;;;;;;22.45;4.90;;;5.90;99.90;;;;;;5051532;28;20036;-61
2024/01/23 05:35:41;;;;;;;31.77;4.88;;;6.10;99.90;;;;;;5050225;28;20224;-60
2024/01/23 05:38:07;;;;;;;21.08;4.25;;;6.40;99.90;;;;;;5051497;28;20099;-60
2024/01/23 05:40:33;;;;;;;26.17;4.78;;;6.40;99.90;;;;;;5051712;28;20049;-60
2024/01/23 05:42:58;;;;;;;21.48;3.58;;;5.70;99.90;;;;;;5051755;28;20045;-60
2024/01/23 05:45:24;;;;;;;24.90;4.10;;;5.60;99.90;;;;;;5051422;28;20044;-60
2024/01/23 05:47:50;;;;;;;31.63;5.95;;;6.30;99.90;;;;;;5051128;28;20133;-60
2024/01/23 05:50:16;;;;;;;33.03;5.03;;;5.80;99.90;;;;;;5051146;28;20116;-50
2024/01/23 05:52:41;;;;;;;31.52;5.75;;;6.00;99.90;;;;;;5050669;28;20045;-48
2024/01/23 05:55:07;;;;;;;23.80;4.22;;;6.00;99.90;;;;;;5050617;28;20033;-50
2024/01/23 05:57:33;;;;;;;30.50;4.75;;;6.30;99.90;;;;;;5050516;28;20422;-48
2024/01/23 06:00:03;;;;;;;25.98;5.32;;;6.30;99.90;;;;;;5050701;28;20041;-50
2024/01/23 06:02:29;;;;;;;24.52;5.30;;;5.50;99.90;;;;;;5050524;28;20429;-51
2024/01/23 06:04:54;;;;;;;24.00;4.68;;;5.70;99.90;;;;;;5067280;28;20135;-49
2024/01/23 06:07:20;;;;;;;31.05;4.65;;;6.20;99.90;;;;;;5070633;28;20080;-51
2024/01/23 06:09:46;;;;;;;20.88;4.07;;;6.20;99.90;;;;;;5070571;28;20033;-49
2024/01/23 06:12:11;;;;;;;25.38;5.07;;;6.20;99.90;;;;;;5071738;28;20043;-49
2024/01/23 06:14:37;;;;;;;30.48;5.07;;;5.60;99.90;;;;;;5073813;28;20047;-48
2024/01/23 06:17:03;;;;;;;28.50;5.07;;;5.80;99.90;;;;;;5071352;28;20048;-49
2024/01/23 06:19:28;;;;;;;28.85;4.63;;;5.60;99.90;;;;;;5052438;28;20090;-47
2024/01/23 06:21:54;;;;;;;27.50;5.05;;;5.90;99.90;;;;;;5053986;28;20044;-47
2024/01/23 06:24:20;;;;;;;26.23;4.85;;;5.40;99.90;;;;;;5053949;28;20059;-50
2024/01/23 06:26:46;;;;;;;31.58;4.32;;;5.30;99.90;;;;;;5053592;28;20044;-58
2024/01/23 06:29:11;;;;;;;29.40;5.28;;;5.30;99.90;;;;;;5053667;28;20120;-48
2024/01/23 06:31:37;;;;;;;28.83;4.47;;;6.00;99.90;;;;;;5053824;28;20045;-48
2024/01/23 06:34:05;;;;;;;26.63;4.45;;;5.20;99.90;;;;;;5053224;28;20462;-46
2024/01/23 06:36:31;;;;;;;31.00;5.10;;;6.10;99.90;;;;;;5051863;28;20080;-51
2024/01/23 06:38:57;;;;;;;26.38;5.50;;;6.10;99.90;;;;;;5053705;28;20041;-50
2024/01/23 06:41:23;;;;;;;34.75;6.07;;;6.10;99.90;;;;;;5055601;28;20040;-49
2024/01/23 06:43:49;;;;;;;30.80;5.05;;;5.60;99.90;;;;;;5063133;28;20501;-48
2024/01/23 06:46:15;;;;;;;32.38;5.25;;;6.00;99.90;;;;;;5063679;28;20040;-51
2024/01/23 06:48:41;;;;;;;21.38;4.25;;;5.70;99.90;;;;;;5062977;28;20059;-46
2024/01/23 06:51:06;;;;;;;27.25;5.95;;;5.80;99.90;;;;;;5072003;28;20530;-51
2024/01/23 06:53:32;;;;;;;22.63;4.43;;;6.00;99.90;;;;;;5072154;28;20040;-47
2024/01/23 06:55:57;;;;;;;34.30;5.93;;;5.40;99.90;;;;;;5073049;28;20520;-47
2024/01/23 06:58:23;;;;;;;29.60;4.93;;;5.20;99.90;;;;;;5073090;28;20481;-47
2024/01/23 07:00:49;;;;;;;36.03;6.10;;;5.40;99.90;;;;;;5072574;28;20041;-48
2024/01/23 07:03:15;;;;;;;35.20;5.25;;;5.30;99.90;;;;;;5073282;28;20090;-49
2024/01/23 07:05:41;;;;;;;31.60;5.95;;;6.10;99.90;;;;;;5072765;28;20089;-49
2024/01/23 07:08:07;;;;;;;27.63;4.95;;;5.50;99.90;;;;;;5071689;28;20044;-47
2024/01/23 07:10:33;;;;;;;29.67;6.45;;;5.10;99.90;;;;;;5073023;28;20097;-48
2024/01/23 07:12:58;;;;;;;38.13;6.18;;;5.30;99.90;;;;;;5071463;28;20044;-50
2024/01/23 07:15:24;;;;;;;35.13;5.82;;;6.00;99.90;;;;;;5072625;28;20037;-50
2024/01/23 07:17:51;;;;;;;28.98;5.35;;;5.10;99.90;;;;;;5073063;28;20043;-48
2024/01/23 07:20:17;;;;;;;36.35;5.47;;;5.00;99.90;;;;;;5072922;28;20049;-48
2024/01/23 07:22:43;;;;;;;38.72;5.50;;;5.00;99.90;;;;;;5070966;28;20199;-47
2024/01/23 07:25:09;;;;;;;47.65;5.68;;;5.40;99.90;;;;;;5072394;28;20473;-47
2024/01/23 07:27:35;;;;;;;40.97;5.35;;;5.90;99.90;;;;;;5072458;28;20381;-47
2024/01/23 07:30:01;;;;;;;30.52;5.55;;;5.30;99.90;;;;;;5072241;28;20048;-50
2024/01/23 07:32:26;;;;;;;36.00;5.00;;;5.10;99.90;;;;;;5071393;28;20040;-46
2024/01/23 07:34:52;;;;;;;34.30;5.75;;;5.40;99.90;;;;;;5071942;28;20048;-51
2024/01/23 07:37:18;;;;;;;31.52;4.88;;;5.20;99.90;;;;;;5072479;28;20036;-51
2024/01/23 07:39:43;;;;;;;36.55;5.63;;;5.90;99.90;;;;;;5072299;28;20049;-47
2024/01/23 07:42:11;;;;;;;36.33;4.43;;;5.10;99.90;;;;;;5072273;28;20052;-48
2024/01/23 07:44:39;;;;;;;23.58;4.32;;;5.10;99.90;;;;;;5070865;28;20438;-48
2024/01/23 07:47:05;;;;;;;32.95;5.32;;;6.00;99.90;;;;;;5072133;28;20552;-50
2024/01/23 07:49:31;;;;;;;34.47;6.10;;;5.80;99.90;;;;;;5071784;28;20127;-47
2024/01/23 07:51:57;;;;;;;33.05;5.05;;;5.40;99.90;;;;;;5072158;28;20054;-46
2024/01/23 07:54:23;;;;;;;29.58;4.68;;;5.70;99.90;;;;;;5071938;28;20075;-48
2024/01/23 07:56:50;;;;;;;36.42;6.85;;;6.00;99.90;;;;;;5071646;28;20404;-51
2024/01/23 07:59:16;;;;;;;37.45;5.10;;;5.90;99.90;;;;;;5071732;28;20492;-50
2024/01/23 08:01:43;;;;;;;25.55;4.55;;;5.00;99.90;;;;;;5070636;28;20047;-47
2024/01/23 08:04:10;;;;;;;28.15;4.72;;;5.00;99.90;;;;;;5071741;28;20107;-47
2024/01/23 08:06:36;;;;;;;32.40;5.03;;;5.80;99.90;;;;;;5071820;28;20050;-48
2024/01/23 08:09:04;;;;;;;36.15;7.07;;;6.00;99.90;;;;;;5070680;28;20072;-48
2024/01/23 08:11:31;;;;;;;31.42;4.63;;;6.00;99.90;;;;;;5071950;28;20040;-50
2024/01/23 08:13:57;;;;;;;28.30;4.68;;;6.00;99.90;;;;;;5071520;28;20072;-51
2024/01/23 08:16:25;;;;;;;32.38;6.72;;;6.00;99.90;;;;;;5071805;28;20083;-47
2024/01/23 08:18:51;;;;;;;29.30;4.85;;;5.30;99.90;;;;;;5071718;28;20095;-49
2024/01/23 08:21:17;;;;;;;38.83;5.35;;;6.10;99.90;;;;;;5071646;28;20040;-50
2024/01/23 08:23:43;;;;;;;28.88;5.13;;;5.20;99.90;;;;;;5071459;28;20051;-49
2024/01/23 08:26:09;;;;;;;28.38;4.43;;;6.10;99.90;;;;;;5070991;28;20397;-50
2024/01/23 08:28:35;;;;;;;30.08;5.97;;;5.80;99.90;;;;;;5071504;28;20053;-46
2024/01/23 08:31:03;;;;;;;27.65;4.22;;;5.40;99.90;;;;;;5071215;28;20055;-49
2024/01/23 08:33:33;;;;;;;30.23;4.47;;;6.10;99.90;;;;;;5071785;28;20079;-46
2024/01/23 08:36:00;;;;;;;30.17;4.90;;;5.90;99.90;;;;;;5070985;28;20040;-47
2024/01/23 08:38:25;;;;;;;34.92;5.07;;;5.90;99.90;;;;;;5060524;28;20036;-46
2024/01/23 08:40:51;;;;;;;41.45;7.78;;;5.20;99.90;;;;;;5061980;28;20165;-47
2024/01/23 08:43:18;;;;;;;27.27;5.47;;;5.70;99.90;;;;;;5060249;28;20443;-47
2024/01/23 08:45:43;;;;;;;33.90;5.10;;;5.00;99.90;;;;;;5060700;28;20044;-61
2024/01/23 08:48:09;;;;;;;39.92;5.35;;;5.20;99.90;;;;;;5070235;28;20378;-61
2024/01/23 08:50:35;;;;;;;26.67;4.43;;;6.00;99.90;;;;;;5070986;28;20045;-61
2024/01/23 08:53:01;;;;;;;31.00;6.30;;;5.00;99.90;;;;;;5071420;28;20053;-62
2024/01/23 08:55:27;;;;;;;30.25;4.50;;;5.10;99.90;;;;;;5069678;28;20037;-62
2024/01/23 08:57:52;;;;;;;27.48;6.10;;;5.30;99.90;;;;;;5071140;28;20045;-61
2024/01/23 09:00:18;;;;;;;33.90;6.68;;;5.90;99.90;;;;;;5071284;28;20040;-61
2024/01/23 09:02:44;;;;;;;31.20;5.13;;;5.90;99.90;;;;;;5071123;28;20044;-62
2024/01/23 09:05:10;;;;;;;36.58;4.93;;;5.10;99.90;;;;;;5062022;28;20045;-61
2024/01/23 09:07:36;;;;;;;30.63;4.32;;;6.00;99.90;;;;;;5053995;28;20064;-61
2024/01/23 09:10:01;;;;;;;33.03;4.55;;;5.90;99.90;;;;;;5059856;28;20381;-61
2024/01/23 09:12:33;;;;;;;31.08;5.38;;;6.00;99.90;;;;;;5061478;28;20033;-62
2024/01/23 09:14:59;;;;;;;32.40;5.40;;;6.10;99.90;;;;;;5050771;28;20041;-62
2024/01/23 09:17:25;;;;;;;31.08;5.40;;;5.10;99.90;;;;;;5052039;28;20037;-62
2024/01/23 09:19:50;;;;;;;24.40;4.45;;;6.00;99.90;;;;;;5051820;28;20393;-62
2024/01/23 09:22:16;;;;;;;32.97;5.43;;;6.20;99.90;;;;;;5051746;28;20080;-62
2024/01/23 09:24:42;;;;;;;27.17;4.07;;;6.30;99.90;;;;;;5050990;28;20443;-62
2024/01/23 09:27:08;;;;;;;30.25;4.47;;;5.20;99.90;;;;;;5049519;28;20037;-62
2024/01/23 09:29:34;;;;;;;32.15;4.82;;;5.60;99.90;;;;;;5051554;28;20045;-61
2024/01/23 09:31:59;;;;;;;27.10;4.70;;;6.30;99.90;;;;;;5051824;28;20102;-62
2024/01/23 09:34:25;;;;;;;30.00;4.53;;;5.40;99.90;;;;;;5051867;28;20029;-61
2024/01/23 09:36:51;;;;;;;32.38;6.00;;;5.40;99.90;;;;;;5066573;28;20373;-61
2024/01/23 09:39:17;;;;;;;33.03;4.28;;;5.50;99.90;;;;;;5071417;28;20625;-61
2024/01/23 09:41:50;;;;;;;33.88;6.18;;;6.00;99.90;;;;;;5062918;28;20128;-61
2024/01/23 09:44:19;;;;;;;31.10;5.65;;;6.30;99.90;;;;;;5061349;28;20569;-61
2024/01/23 09:46:45;;;;;;;31.33;5.15;;;5.70;99.90;;;;;;5059980;28;20044;-61
2024/01/23 09:49:11;;;;;;;27.63;5.25;;;5.70;99.90;;;;;;5064509;28;20053;-61
2024/01/23 09:51:47;;;;;;;32.55;5.78;;;6.30;99.90;;;;;;5065058;28;20094;-60
2024/01/23 09:54:13;;;;;;;28.25;4.63;;;6.70;99.90;;;;;;5064183;28;20041;-60
2024/01/23 09:56:39;;;;;;;37.65;7.78;;;6.70;99.90;;;;;;5061861;28;20099;-47
2024/01/23 09:59:12;;;;;;;23.23;4.68;;;5.80;99.90;;;;;;5065761;28;20486;-50
2024/01/23 10:01:38;;;;;;;33.60;5.78;;;6.00;99.90;;;;;;5064867;28;20166;-46
2024/01/23 10:04:05;;;;;;;33.53;7.88;;;6.60;99.90;;;;;;5054214;28;20037;-50
2024/01/23 10:06:32;;;;;;;28.52;4.63;;;5.90;99.90;;;;;;5062967;28;20432;-49
2024/01/23 10:08:58;;;;;;;34.60;5.82;;;6.60;99.90;;;;;;5064567;28;20048;-49
2024/01/23 10:11:27;;;;;;;27.05;6.28;;;6.80;99.90;;;;;;5058295;28;20040;-48
2024/01/23 10:13:56;;;;;;;31.50;5.32;;;6.90;99.90;;;;;;5060060;28;20068;-48
2024/01/23 10:16:22;;;;;;;29.17;5.05;;;6.30;99.90;;;;;;5065458;28;20043;-50
2024/01/23 10:18:49;;;;;;;27.80;5.05;;;6.60;99.90;;;;;;5059967;28;20041;-50
2024/01/23 10:21:22;;;;;;;27.83;3.97;;;7.10;99.90;;;;;;5056661;28;20585;-50
2024/01/23 10:23:52;;;;;;;26.48;4.88;;;7.00;99.90;;;;;;5069566;28;20043;-49
2024/01/23 10:26:18;;;;;;;39.53;6.22;;;6.70;99.90;;;;;;5073589;28;20044;-50
2024/01/23 10:28:44;;;;;;;29.83;4.93;;;6.40;99.90;;;;;;5063779;28;20401;-48
2024/01/23 10:31:11;;;;;;;30.88;4.38;;;6.40;99.90;;;;;;5063419;28;20400;-48
2024/01/23 10:33:37;;;;;;;30.10;4.47;;;7.10;99.90;;;;;;5054784;28;20037;-48
2024/01/23 10:36:08;;;;;;;30.67;4.47;;;6.40;99.90;;;;;;5058744;28;20037;-50
2024/01/23 10:38:35;;;;;;;23.58;4.35;;;6.50;99.90;;;;;;5062912;28;20354;-50
2024/01/23 10:41:03;;;;;;;27.33;5.18;;;7.20;99.90;;;;;;5068378;28;20036;-47
2024/01/23 10:43:30;;;;;;;28.42;4.97;;;6.50;99.90;;;;;;5074005;28;20076;-50
2024/01/23 10:45:57;;;;;;;29.13;5.07;;;7.30;99.90;;;;;;5074034;28;20036;-47
2024/01/23 10:48:24;;;;;;;25.15;4.60;;;6.70;99.90;;;;;;5071137;28;20462;-49
2024/01/23 10:50:55;;;;;;;34.20;4.53;;;7.10;99.90;;;;;;5073590;28;20040;-48
2024/01/23 10:53:22;;;;;;;30.52;4.85;;;6.80;99.90;;;;;;5073923;28;20468;-49
2024/01/23 10:55:51;;;;;;;24.77;5.22;;;6.90;99.90;;;;;;5074125;28;20051;-48
2024/01/23 10:58:28;;;;;;;34.78;5.28;;;6.90;99.90;;;;;;5073470;28;20052;-51
2024/01/23 11:00:58;;;;;;;30.35;5.05;;;6.80;99.90;;;;;;5074073;28;20052;-50
2024/01/23 11:03:25;;;;;;;33.03;5.20;;;7.00;99.90;;;;;;5073974;28;20045;-51
2024/01/23 11:05:57;;;;;;;31.13;3.78;;;7.00;99.90;;;;;;5073811;28;20086;-48
2024/01/23 11:08:36;;;;;;;36.17;5.22;;;7.60;99.90;;;;;;5073643;28;20396;-51
2024/01/23 11:11:13;;;;;;;30.05;5.10;;;7.60;99.90;;;;;;5073976;28;20040;-50
2024/01/23 11:13:43;;;;;;;29.98;4.60;;;7.00;99.90;;;;;;5073763;28;20047;-50
2024/01/23 11:16:09;;;;;;;30.55;5.68;;;7.40;99.90;;;;;;5073876;28;20044;-52
2024/01/23 11:18:35;;;;;;;27.65;4.15;;;7.50;99.90;;;;;;5073395;28;20377;-52
2024/01/23 11:21:10;;;;;;;26.90;5.03;;;7.00;99.90;;;;;;5073344;28;20127;-48
2024/01/23 11:23:44;;;;;;;30.02;5.05;;;7.40;99.90;;;;;;5073392;28;20083;-51
2024/01/23 11:26:15;;;;;;;25.50;4.35;;;7.60;99.90;;;;;;5073704;28;20044;-47
2024/01/23 11:28:46;;;;;;;26.27;4.13;;;7.10;99.90;;;;;;5072136;28;20040;-48
2024/01/23 11:31:21;;;;;;;24.83;4.25;;;7.30;99.90;;;;;;5058741;28;20040;-47
2024/01/23 11:33:47;;;;;;;23.05;3.95;;;7.50;99.90;;;;;;5053219;28;20080;-51
2024/01/23 11:36:21;;;;;;;24.77;3.67;;;7.70;99.90;;;;;;5052244;28;20037;-48
2024/01/23 11:38:57;;;;;;;26.38;4.10;;;7.40;99.90;;;;;;5053105;28;20048;-50
2024/01/23 11:41:26;;;;;;;22.35;3.65;;;7.80;99.90;;;;;;5052991;28;20488;-49
2024/01/23 11:44:15;;;;;;;28.02;4.45;;;7.40;99.90;;;;;;5062366;28;20527;-48
2024/01/23 11:46:41;;;;;;;24.58;4.10;;;7.40;99.90;;;;;;5063167;28;20049;-52
2024/01/23 11:49:09;;;;;;;32.10;4.18;;;7.30;99.90;;;;;;5058325;28;20056;-50
2024/01/23 11:51:38;;;;;;;34.13;4.30;;;7.30;99.90;;;;;;5061951;28;20037;-48
2024/01/23 11:54:13;;;;;;;26.05;4.07;;;7.20;99.90;;;;;;5067053;28;20033;-47
2024/01/23 11:56:41;;;;;;;26.55;4.97;;;7.40;99.90;;;;;;5073034;28;20040;-47
2024/01/23 11:59:07;;;;;;;32.00;5.05;;;7.20;99.90;;;;;;5071387;28;20044;-46
2024/01/23 12:01:34;;;;;;;31.05;5.20;;;7.20;99.90;;;;;;5072793;28;20072;-49
2024/01/23 12:04:01;;;;;;;25.13;3.90;;;7.30;99.90;;;;;;5072695;28;20047;-50
2024/01/23 12:06:27;;;;;;;21.35;4.22;;;7.80;99.90;;;;;;5072522;28;20374;-48
2024/01/23 12:08:53;;;;;;;23.23;3.55;;;7.70;99.90;;;;;;5072070;28;20049;-47
2024/01/23 12:11:19;;;;;;;31.90;5.03;;;7.70;99.90;;;;;;5072128;28;20126;-48
2024/01/23 12:13:49;;;;;;;25.85;5.50;;;7.50;99.90;;;;;;5072750;28;20076;-48
2024/01/23 12:16:16;;;;;;;22.15;3.28;;;7.90;99.90;;;;;;5072363;28;20028;-49
2024/01/23 12:18:41;;;;;;;25.52;4.75;;;7.70;99.90;;;;;;5072454;28;20045;-51
2024/01/23 12:21:08;;;;;;;27.90;4.22;;;7.70;99.90;;;;;;5070939;28;20389;-51
2024/01/23 12:23:34;;;;;;;30.38;6.32;;;7.60;99.90;;;;;;5072303;28;20037;-48
2024/01/23 12:26:00;;;;;;;21.55;4.07;;;7.40;99.90;;;;;;5072486;28;20044;-52
2024/01/23 12:28:29;;;;;;;23.92;3.92;;;7.80;99.90;;;;;;5072378;28;20433;-51
2024/01/23 12:30:55;;;;;;;22.83;4.30;;;7.70;99.90;;;;;;5072531;28;20032;-50
2024/01/23 12:33:21;;;;;;;26.15;3.95;;;7.70;99.90;;;;;;5072541;28;20040;-50
2024/01/23 12:35:48;;;;;;;25.02;3.22;;;7.30;99.90;;;;;;5072153;28;20037;-49
2024/01/23 12:38:20;;;;;;;24.48;3.85;;;7.70;99.90;;;;;;5072268;28;20083;-50
2024/01/23 12:40:47;;;;;;;21.75;3.95;;;7.60;99.90;;;;;;5071095;28;20037;-50
2024/01/23 12:43:15;;;;;;;27.48;4.97;;;7.80;99.90;;;;;;5054420;28;20063;-48
2024/01/23 12:45:41;;;;;;;26.92;5.22;;;7.70;99.90;;;;;;5070834;28;20127;-50